Home > Products > Valid Products > TAF

000
FTUS45 KBOI 300520
TAFBNO
TAF
KBNO 300520Z 3006/0106 27012KT P6SM BKN070
     FM301800 30015G25KT P6SM SCT050
     FM010300 32010KT P6SM SCT080=



000
FTUS45 KBOI 300520
TAFBOI
TAF
KBOI 300520Z 3006/0106 31010KT P6SM FEW080
     FM302000 30020G30KT P6SM SCT080
     FM010300 31008KT P6SM FEW080=



000
FTUS45 KBOI 300520
TAFTWF
TAF
KTWF 300520Z 3006/0106 22010KT P6SM SCT050
     FM302000 27015G20KT P6SM SCT080
     FM010300 23008KT P6SM BKN080=



000
FTUS45 KBOI 300520
TAFMYL
TAF
KMYL 300520Z 3006/0106 31010KT P6SM SCT100
     FM302100 31010G15KT P6SM VCSH BKN080
     FM010300 31008KT P6SM BKN080=



000
FTUS45 KBOI 300520
TAFBKE
TAF
KBKE 300520Z 3006/0106 33010KT P6SM BKN050
     FM301800 32023G33KT P6SM BKN050
     FM010400 32010KT P6SM SCT050=



000
FTUS45 KBOI 300520
TAFJER
TAF
KJER 300520Z 3006/0106 20010KT P6SM SCT060
     FM302000 25010G15KT P6SM SCT050
     FM010300 21010KT P6SM BKN080=



000
FTUS45 KBOI 292340
TAFMYL
TAF
KMYL 292340Z 3000/3024 31010KT P6SM -SHRA SCT025 OVC050
     FM300300 31006KT P6SM VCSH OVC035
     FM301200 31010KT P6SM BKN080=



000
FTUS45 KBOI 292340
TAFTWF
TAF
KTWF 292340Z 3000/3024 26015G25KT P6SM SCT080
     FM300500 22010KT P6SM SCT050
     FM302000 27015KT P6SM SCT080=



000
FTUS45 KBOI 292340
TAFJER
TAF
KJER 292340Z 3000/3024 26015KT P6SM SCT060
     FM300300 20010KT P6SM SCT050
     FM302000 25008KT P6SM SCT050=



000
FTUS45 KBOI 292340
TAFBOI
TAF
KBOI 292340Z 3000/3024 31015G25KT P6SM VCSH SCT050 BKN080
     FM300400 31010KT P6SM SCT080
     FM302000 30020G30KT P6SM SCT080=



000
FTUS45 KBOI 292340
TAFBKE
TAF
KBKE 292340Z 3000/3024 32015KT P6SM VCSH OVC040
     FM300400 31012KT P6SM BKN050
     FM301800 32020G30KT P6SM BKN050=



000
FTUS45 KBOI 292340
TAFBNO
TAF
KBNO 292340Z 3000/3024 34015KT P6SM VCSH BKN040
     FM300300 27010KT P6SM BKN050
     FM301800 30015G25KT P6SM SCT050=



000
FTUS45 KBOI 292059 AAA
TAFBNO
TAF AMD
KBNO 292059Z 2921/3018 34015KT P6SM VCSH BKN050
     FM300400 29010KT P6SM VCSH BKN050
     FM301500 30015G25KT P6SM SCT100=



000
FTUS45 KBOI 292059 AAA
TAFBNO
TAF AMD
KBNO 292059Z 2921/3018 34015KT P6SM VCSH BKN050
     FM300400 29010KT P6SM VCSH BKN050
     FM301500 30015G25KT P6SM SCT100=



000
FTUS45 KBOI 292001 AAA
TAFMYL
TAF AMD
KMYL 292001Z 2920/3018 33006KT P6SM -RA BKN025 OVC050
     FM292300 33010KT P6SM -SHRA SCT025 BKN050
     FM300300 34006KT P6SM VCSH OVC015
     FM301600 34012KT P6SM BKN030=



000
FTUS45 KBOI 291957 AAA
TAFBKE
TAF AMD
KBKE 291957Z 2920/3018 32012KT P6SM -RA OVC035
     FM300400 31012KT P6SM BKN050
     FM301400 32015G25KT P6SM SCT100=



000
FTUS45 KBOI 291736
TAFBOI
TAF
KBOI 291736Z 2918/3018 30015KT P6SM BKN035 OVC100
     FM292000 31015G25KT P6SM VCSH SCT050 BKN080
     FM300400 31010KT P6SM VCSH SCT080=



000
FTUS45 KBOI 291736
TAFMYL
TAF
KMYL 291736Z 2918/3018 VRB03KT P6SM -RA OVC010
     FM292300 33010KT P6SM -SHRA BKN025 OVC040
     FM300300 34006KT P6SM VCSH BKN040
     FM301200 34010KT P6SM SCT080=



000
FTUS45 KBOI 291736
TAFTWF
TAF
KTWF 291736Z 2918/3018 27012KT P6SM SCT030 BKN060
     FM300500 22010KT P6SM VCSH OVC050
     FM301600 25012KT P6SM SCT080=



000
FTUS45 KBOI 291736
TAFBNO
TAF
KBNO 291736Z 2918/3018 28010G20KT P6SM BKN040 OVC070
     FM292200 28015G25KT P6SM -SHRA OVC050
     FM300400 29010KT P6SM VCSH BKN050
     FM301500 30015G25KT P6SM SCT100=



000
FTUS45 KBOI 291736
TAFBKE
TAF
KBKE 291736Z 2918/3018 32012KT P6SM SCT030 BKN070
     FM292100 31015G25KT P6SM VCSH OVC050
     FM300400 31012KT P6SM BKN050
     FM301400 32015G25KT P6SM SCT100=



000
FTUS45 KBOI 291736
TAFJER
TAF
KJER 291736Z 2918/3018 24012KT P6SM SCT120
     FM292100 26015KT P6SM VCSH BKN060 OVC100
     FM300300 25010KT P6SM VCSH BKN050
     FM300800 21008KT P6SM SCT050=



000
FTUS45 KBOI 291736
TAFBOI
TAF
KBOI 291736Z 2918/3018 30015KT P6SM BKN035 OVC100
     FM292000 31015G25KT P6SM VCSH SCT050 BKN080
     FM300400 31010KT P6SM VCSH SCT080=



000
FTUS45 KBOI 291736
TAFTWF
TAF
KTWF 291736Z 2918/3018 27012KT P6SM SCT030 BKN060
     FM300500 22010KT P6SM VCSH OVC050
     FM301600 25012KT P6SM SCT080=



000
FTUS45 KBOI 291736
TAFJER
TAF
KJER 291736Z 2918/3018 24012KT P6SM SCT120
     FM292100 26015KT P6SM VCSH BKN060 OVC100
     FM300300 25010KT P6SM VCSH BKN050
     FM300800 21008KT P6SM SCT050=



000
FTUS45 KBOI 291736
TAFMYL
TAF
KMYL 291736Z 2918/3018 VRB03KT P6SM -RA OVC010
     FM292300 33010KT P6SM -SHRA BKN025 OVC040
     FM300300 34006KT P6SM VCSH BKN040
     FM301200 34010KT P6SM SCT080=



000
FTUS45 KBOI 291736
TAFBNO
TAF
KBNO 291736Z 2918/3018 28010G20KT P6SM BKN040 OVC070
     FM292200 28015G25KT P6SM -SHRA OVC050
     FM300400 29010KT P6SM VCSH BKN050
     FM301500 30015G25KT P6SM SCT100=



000
FTUS45 KBOI 291736
TAFBKE
TAF
KBKE 291736Z 2918/3018 32012KT P6SM SCT030 BKN070
     FM292100 31015G25KT P6SM VCSH OVC050
     FM300400 31012KT P6SM BKN050
     FM301400 32015G25KT P6SM SCT100=



000
FTUS45 KBOI 291642 AAA
TAFTWF
TAF AMD
KTWF 291642Z 2917/3012 25012KT P6SM BKN025 OVC060
     FM300000 26015G25KT P6SM VCSH BKN050=



000
FTUS45 KBOI 291514 AAC
TAFMYL
TAF AMD
KMYL 291514Z 2915/3012 00000KT P6SM -RA OVC008
     FM291800 VRB03KT P6SM -SHRA SCT008 BKN025
     FM300300 34006KT P6SM VCSH BKN040=



000
FTUS45 KBOI 291514 AAC
TAFMYL
TAF AMD
KMYL 291514Z 2915/3012 00000KT P6SM -RA OVC008
     FM291800 VRB03KT P6SM -SHRA SCT008 BKN025
     FM300300 34006KT P6SM VCSH BKN040=



000
FTUS45 KBOI 291359 AAA
TAFJER
TAF AMD
KJER 291359Z 2914/3012 VRB03KT P6SM BKN035
     FM291800 26012KT P6SM BKN040
     FM300000 25015G25KT P6SM BKN070=



000
FTUS45 KBOI 291357 AAB
TAFMYL
TAF AMD
KMYL 291357Z 2914/3012 00000KT P6SM -RA BKN008 OVC025
     FM291500 VRB03KT P6SM -SHRA SCT008 BKN025
     FM300300 34006KT P6SM VCSH BKN040=



000
FTUS45 KBOI 291302 AAA
TAFMYL
TAF AMD
KMYL 291302Z 2913/3012 32007KT P6SM -SHRA SCT010 OVC025
     FM300300 34006KT P6SM VCSH BKN040=



000
FTUS45 KBOI 291132
TAFTWF
TAF
KTWF 291132Z 2912/3012 25012KT P6SM SCT080
     FM300000 26015G25KT P6SM BKN070=



000
FTUS45 KBOI 291132
TAFJER
TAF
KJER 291132Z 2912/3012 24005KT 5SM BR SCT005 BKN040
      TEMPO 2912/2913 2SM BR BKN005
     FM291400 25008KT P6SM BKN070
     FM300000 25015G25KT P6SM BKN070=



000
FTUS45 KBOI 291132
TAFMYL
TAF
KMYL 291132Z 2912/3012 32005KT P6SM VCSH SCT035 OVC050
     FM291500 31010KT P6SM -SHRA SCT015 OVC025
     FM300300 34006KT P6SM VCSH BKN040=



000
FTUS45 KBOI 291132
TAFBOI
TAF
KBOI 291132Z 2912/3012 30008KT P6SM SCT090
     FM292000 31015G25KT P6SM VCSH BKN080
     FM300600 31009KT P6SM BKN100=



000
FTUS45 KBOI 291132
TAFBKE
TAF
KBKE 291132Z 2912/3012 31008KT P6SM BKN070
     FM291900 31015G25KT P6SM VCSH OVC050
     FM300400 31012KT P6SM BKN050=



000
FTUS45 KBOI 291132
TAFBNO
TAF
KBNO 291132Z 2912/3012 30010KT P6SM BKN060
     FM291900 29018G28KT P6SM VCSH OVC050
     FM300500 29010KT P6SM VCSH BKN050=



000
FTUS45 KBOI 291025 AAA
TAFJER
TAF AMD
KJER 291025Z 2910/3006 20005KT 5SM BR SCT005 BKN040
      TEMPO 2910/2912 2SM BR BKN005
     FM291300 22008KT P6SM BKN070
     FM300000 25020G30KT P6SM BKN100=



000
FTUS45 KBOI 290525
TAFMYL
TAF
KMYL 290525Z 2906/3006 32005KT P6SM BKN070
     FM291200 34010KT P6SM VCSH BKN050
     FM291500 31010KT P6SM -SHRA SCT015 OVC025=



000
FTUS45 KBOI 290525
TAFBOI
TAF
KBOI 290525Z 2906/3006 31008KT P6SM BKN200
     FM292000 31015G25KT P6SM VCSH BKN080=



000
FTUS45 KBOI 290525
TAFBKE
TAF
KBKE 290525Z 2906/3006 31008KT P6SM SCT090 BKN250
     FM291900 31015G25KT P6SM -SHRA OVC050=



000
FTUS45 KBOI 290525
TAFBNO
TAF
KBNO 290525Z 2906/3006 30010KT P6SM BKN060
     FM291900 29018G28KT P6SM -SHRA OVC050=



000
FTUS45 KBOI 290525
TAFTWF
TAF
KTWF 290525Z 2906/3006 21010KT P6SM SCT080
     FM300000 26020G30KT P6SM BKN080=



000
FTUS45 KBOI 290525
TAFJER
TAF
KJER 290525Z 2906/3006 21010KT P6SM SCT080
     FM300000 25020G30KT P6SM BKN100=



000
FTUS45 KBOI 290200 AAA
TAFTWF
TAF AMD
KTWF 290200Z 2902/2924 27010KT P6SM SCT080
      TEMPO 2902/2903 VRB15KT -SHRA OVC050
     FM290300 21010KT P6SM SCT080 BKN200
     FM291800 26010KT P6SM BKN100=



000
FTUS45 KBOI 290159 AAA
TAFJER
TAF AMD
KJER 290159Z 2902/2924 21010KT P6SM SCT080
      TEMPO 2902/2904 VRB15KT -SHRA OVC060
     FM291800 25011KT P6SM BKN100=



000
FTUS45 KBOI 282323
TAFBKE
TAF
KBKE 282323Z 2900/2924 31017G27KT P6SM SCT090
     FM290300 31008KT P6SM SCT090 BKN250=



000
FTUS45 KBOI 282323
TAFJER
TAF
KJER 282323Z 2900/2924 21010KT P6SM SCT080
     FM291800 25011KT P6SM BKN100=



000
FTUS45 KBOI 282323
TAFMYL
TAF
KMYL 282323Z 2900/2924 32015KT P6SM VCSH BKN050
     FM291200 34010KT P6SM VCSH BKN050
     FM291500 31010KT P6SM -SHRA SCT015 OVC025=



000
FTUS45 KBOI 282323
TAFTWF
TAF
KTWF 282323Z 2900/2924 27010KT P6SM SCT080
     FM290300 21010KT P6SM SCT080 BKN200
     FM291800 26010KT P6SM BKN100=



000
FTUS45 KBOI 282323
TAFBNO
TAF
KBNO 282323Z 2900/2924 30010KT P6SM BKN060=



000
FTUS45 KBOI 282323
TAFBOI
TAF
KBOI 282323Z 2900/2924 31020G30KT P6SM SCT080
     FM290300 31008KT P6SM BKN200=



000
FTUS45 KBOI 281720
TAFBNO
TAF
KBNO 281720Z 2818/2918 30014KT P6SM SCT070 BKN200
     FM290300 27007KT P6SM SCT070 BKN200=



000
FTUS45 KBOI 281720
TAFJER
TAF
KJER 281720Z 2818/2918 VRB06KT P6SM SCT080 BKN200
     FM282000 25010KT P6SM SCT080 BKN200
     FM290400 VRB06KT P6SM SCT080 BKN200
     FM291700 25011KT P6SM BKN100=



000
FTUS45 KBOI 281720
TAFBOI
TAF
KBOI 281720Z 2818/2918 31006KT P6SM SCT090 BKN250
     FM281900 31015G25KT P6SM SCT080 BKN250
     FM290300 31007KT P6SM BKN200=



000
FTUS45 KBOI 281720
TAFMYL
TAF
KMYL 281720Z 2818/2918 34010KT P6SM BKN050
     FM282000 32015KT P6SM VCSH BKN050
     FM290100 34010KT P6SM VCSH BKN050
     FM290800 31006KT P6SM -SHRA SCT015 OVC025=



000
FTUS45 KBOI 281720
TAFBKE
TAF
KBKE 281720Z 2818/2918 31017G27KT P6SM SCT090
     FM290300 31010KT P6SM SCT090 BKN250
     FM290900 VRB05KT P6SM SCT100 BKN200
     FM291700 32009KT P6SM BKN100=



000
FTUS45 KBOI 281720
TAFTWF
TAF
KTWF 281720Z 2818/2918 VRB06KT P6SM SCT080 BKN200
     FM282000 29010KT P6SM SCT080 BKN200
     FM290300 21010KT P6SM SCT080 BKN200
     FM291600 26010KT P6SM BKN100=



000
FTUS45 KBOI 281610 AAA
TAFJER
TAF AMD
KJER 281610Z 2816/2912 VRB06KT P6SM SCT080 BKN200
     FM282000 25010KT P6SM SCT080 SCT200
     FM290200 20007KT P6SM SCT080 SCT200=



000
FTUS45 KBOI 281610 AAA
TAFJER
TAF AMD
KJER 281610Z 2816/2912 VRB06KT P6SM SCT080 BKN200
     FM282000 25010KT P6SM SCT080 SCT200
     FM290200 20007KT P6SM SCT080 SCT200=



000
FTUS45 KBOI 281609 AAA
TAFTWF
TAF AMD
KTWF 281609Z 2816/2912 VRB06KT P6SM SCT080 BKN200
     FM282000 29010KT P6SM SCT080 SCT200
     FM290200 22010KT P6SM SCT080 SCT200=



000
FTUS45 KBOI 281530 AAA
TAFBKE
TAF AMD
KBKE 281530Z 2816/2912 31016G26KT P6SM SCT090
     FM290300 31008KT P6SM SCT080 SCT250=



000
FTUS45 KBOI 281137
TAFBOI
TAF
KBOI 281137Z 2812/2912 VRB06KT P6SM FEW080 BKN200
     FM281800 30018G28KT P6SM SCT080 BKN200
     FM290200 30008KT P6SM BKN200=



000
FTUS45 KBOI 281137
TAFTWF
TAF
KTWF 281137Z 2812/2912 20010KT P6SM BKN080 BKN200
     FM281600 29012G20KT P6SM SCT080 SCT200
     FM290200 22010KT P6SM SCT080 SCT200=



000
FTUS45 KBOI 281137
TAFBKE
TAF
KBKE 281137Z 2812/2912 31010KT P6SM SCT080
     FM281700 31017G27KT P6SM SCT080
     FM290300 31008KT P6SM SCT080 SCT250=



000
FTUS45 KBOI 281137
TAFBNO
TAF
KBNO 281137Z 2812/2912 27011KT P6SM VCSH BKN070
     FM281700 29013G21KT P6SM SCT070 SCT250
     FM290100 27008KT P6SM SCT050 BKN200=



000
FTUS45 KBOI 281137
TAFMYL
TAF
KMYL 281137Z 2812/2912 33006KT P6SM BKN050
     FM281700 32013G19KT P6SM SCT050 BKN150
     FM290100 34010KT P6SM VCSH BKN050
     FM290700 VRB06KT P6SM -SHRA BKN015 OVC030=



000
FTUS45 KBOI 281137
TAFJER
TAF
KJER 281137Z 2812/2912 07007KT P6SM BKN080 BKN200
     FM281600 25014G22KT P6SM SCT080 SCT200
     FM290200 20007KT P6SM SCT080 SCT200=



000
FTUS45 KBOI 281137
TAFJER
TAF
KJER 281137Z 2812/2912 07007KT P6SM BKN080 BKN200
     FM281600 25014G22KT P6SM SCT080 SCT200
     FM290200 20007KT P6SM SCT080 SCT200=



000
FTUS45 KBOI 281137
TAFBOI
TAF
KBOI 281137Z 2812/2912 VRB06KT P6SM FEW080 BKN200
     FM281800 30018G28KT P6SM SCT080 BKN200
     FM290200 30008KT P6SM BKN200=



000
FTUS45 KBOI 281137
TAFTWF
TAF
KTWF 281137Z 2812/2912 20010KT P6SM BKN080 BKN200
     FM281600 29012G20KT P6SM SCT080 SCT200
     FM290200 22010KT P6SM SCT080 SCT200=



000
FTUS45 KBOI 281137
TAFBKE
TAF
KBKE 281137Z 2812/2912 31010KT P6SM SCT080
     FM281700 31017G27KT P6SM SCT080
     FM290300 31008KT P6SM SCT080 SCT250=



000
FTUS45 KBOI 281137
TAFBNO
TAF
KBNO 281137Z 2812/2912 27011KT P6SM VCSH BKN070
     FM281700 29013G21KT P6SM SCT070 SCT250
     FM290100 27008KT P6SM SCT050 BKN200=



000
FTUS45 KBOI 281137
TAFMYL
TAF
KMYL 281137Z 2812/2912 33006KT P6SM BKN050
     FM281700 32013G19KT P6SM SCT050 BKN150
     FM290100 34010KT P6SM VCSH BKN050
     FM290700 VRB06KT P6SM -SHRA BKN015 OVC030=



000
FTUS45 KBOI 280520
TAFBKE
TAF
KBKE 280520Z 2806/2906 31013KT P6SM SCT080
     FM281500 31016G26KT P6SM SCT080
     FM290300 31008KT P6SM SCT080=



000
FTUS45 KBOI 280520
TAFMYL
TAF
KMYL 280520Z 2806/2906 33006KT P6SM BKN080=



000
FTUS45 KBOI 280520
TAFBOI
TAF
KBOI 280520Z 2806/2906 33011KT P6SM SCT100
     FM280800 VRB06KT P6SM BKN080
     FM281500 30013KT P6SM SCT080=



000
FTUS45 KBOI 280520
TAFBNO
TAF
KBNO 280520Z 2806/2906 31011KT P6SM BKN070=



000
FTUS45 KBOI 280520
TAFJER
TAF
KJER 280520Z 2806/2906 VRB06KT P6SM BKN080
     FM281600 24011KT P6SM SCT080=



000
FTUS45 KBOI 280520
TAFTWF
TAF
KTWF 280520Z 2806/2906 20010KT P6SM BKN080
     FM281600 26012KT P6SM SCT080=



000
FTUS45 KBOI 280138 AAA
TAFTWF
TAF AMD
KTWF 280138Z 2802/2824 VRB06KT 2SM -SHRA OVC025
     FM280230 22010KT P6SM BKN040
     FM280400 21010KT P6SM BKN080
     FM281600 26009KT P6SM BKN080=



000
FTUS45 KBOI 280138 AAA
TAFTWF
TAF AMD
KTWF 280138Z 2802/2824 VRB06KT 2SM -SHRA OVC025
     FM280230 22010KT P6SM BKN040
     FM280400 21010KT P6SM BKN080
     FM281600 26009KT P6SM BKN080=



000
FTUS45 KBOI 272344
TAFBKE
TAF
KBKE 272344Z 2800/2824 31011KT P6SM VCSH SCT050
     FM280600 31011KT P6SM -SHRA SCT025 OVC040
      TEMPO 2809/2812 BKN025
     FM281300 31011KT P6SM SCT025 OVC050
     FM281500 31016G26KT P6SM OVC050=



000
FTUS45 KBOI 272344
TAFBOI
TAF
KBOI 272344Z 2800/2824 33011KT P6SM SCT100
     FM280800 VRB06KT P6SM BKN080
     FM281500 31013KT P6SM BKN080=



000
FTUS45 KBOI 272344
TAFTWF
TAF
KTWF 272344Z 2800/2824 28009KT P6SM BKN060
     FM280200 21010KT P6SM BKN080
     FM281600 26009KT P6SM BKN080=



000
FTUS45 KBOI 272344
TAFBNO
TAF
KBNO 272344Z 2800/2824 28012KT P6SM -SHRA BKN060
     FM280200 28010KT P6SM SCT020 BKN050=



000
FTUS45 KBOI 272344
TAFJER
TAF
KJER 272344Z 2800/2824 22009KT P6SM BKN080
     FM280300 VRB06KT P6SM BKN080=



000
FTUS45 KBOI 272344
TAFMYL
TAF
KMYL 272344Z 2800/2824 33006KT P6SM -SHRA OVC035
      TEMPO 2800/2803 BKN007
     FM281000 33008KT P6SM SCT015 OVC035=



000
FTUS45 KBOI 272100 AAA
TAFMYL
TAF AMD
KMYL 272100Z 2721/2818 33006KT P6SM -SHRA OVC035
      TEMPO 2721/2724 2SM SHRA BR BKN020
     FM280000 33009KT 5SM -SHRA BR SCT009 OVC015
      TEMPO 2800/2803 BKN007
     FM281000 33008KT P6SM SCT015 OVC035=



000
FTUS45 KBOI 271720
TAFJER
TAF
KJER 271720Z 2718/2818 VRB06KT P6SM BKN080
     FM272000 25009KT P6SM BKN080
     FM280300 VRB06KT P6SM BKN080=



000
FTUS45 KBOI 271720
TAFBNO
TAF
KBNO 271720Z 2718/2818 27009KT P6SM SCT020 BKN070
      TEMPO 2718/2722 -SHRA BKN025
     FM272200 28012KT P6SM -SHRA SCT020 BKN070
     FM280200 28010KT P6SM SCT020 BKN050=



000
FTUS45 KBOI 271720
TAFMYL
TAF
KMYL 271720Z 2718/2818 VRB06KT P6SM VCSH BKN060
     FM272000 VRB06KT P6SM -SHRA OVC035
      TEMPO 2801/2803 4SM SHRA BR BKN020
     FM280300 33009KT 6SM -SHRA BR SCT009 OVC015
      TEMPO 2803/2805 BKN007
     FM281000 33008KT P6SM SCT015 OVC035=



000
FTUS45 KBOI 271720
TAFBOI
TAF
KBOI 271720Z 2718/2818 31009KT P6SM BKN080
     FM280800 VRB06KT P6SM BKN080
     FM281500 31013KT P6SM BKN080=



000
FTUS45 KBOI 271720
TAFTWF
TAF
KTWF 271720Z 2718/2818 28009KT P6SM BKN080
     FM280200 21010KT P6SM BKN080
     FM281600 26009KT P6SM BKN080=



000
FTUS45 KBOI 271720
TAFBKE
TAF
KBKE 271720Z 2718/2818 31013KT P6SM VCSH SCT035 OVC050
      TEMPO 2720/2724 VRB15G25KT -SHRA BKN035
     FM280600 31011KT P6SM -SHRA SCT025 OVC040
      TEMPO 2809/2812 BKN025
     FM281300 31011KT P6SM SCT025 OVC050
     FM281500 31016G26KT P6SM OVC050=



000
FTUS45 KBOI 271614 AAA
TAFMYL
TAF AMD
KMYL 271614Z 2716/2812 VRB06KT P6SM VCSH OVC050
     FM271800 34007KT P6SM -SHRA OVC035
     FM280000 35009KT 4SM SHRA BR OVC009
     FM280600 35010KT P6SM SCT009 SCT035 SCT050=



000
FTUS45 KBOI 271614 AAA
TAFMYL
TAF AMD
KMYL 271614Z 2716/2812 VRB06KT P6SM VCSH OVC050
     FM271800 34007KT P6SM -SHRA OVC035
     FM280000 35009KT 4SM SHRA BR OVC009
     FM280600 35010KT P6SM SCT009 SCT035 SCT050=



000
FTUS45 KBOI 271228 AAA
TAFBKE
TAF AMD
KBKE 271228Z 2713/2812 31008KT P6SM -SHRA SCT035 OVC050
     FM271800 31013G22KT P6SM FEW040 BKN100
     FM280600 31011KT P6SM VCSH OVC035
      TEMPO 2808/2812 -SHRA OVC025=



000
FTUS45 KBOI 271133
TAFJER
TAF
KJER 271133Z 2712/2812 08011KT P6SM BKN070
     FM272100 25010KT P6SM VCSH BKN060
      TEMPO 2722/2802 -SHRA OVC050
     FM280200 VRB06KT P6SM VCSH BKN060=



000
FTUS45 KBOI 271133
TAFBNO
TAF
KBNO 271133Z 2712/2812 27010KT P6SM SCT015 OVC040
     FM272100 31013G22KT P6SM VCSH OVC060
      TEMPO 2722/2802 -SHRA OVC050
     FM280200 28010KT P6SM SCT010 OVC040=



000
FTUS45 KBOI 271133
TAFBOI
TAF
KBOI 271133Z 2712/2812 14006KT P6SM BKN070
     FM271600 31010KT P6SM VCSH BKN090
     FM280100 VRB06KT P6SM VCSH BKN100
     FM280900 VRB05KT P6SM SCT002 SCT100=



000
FTUS45 KBOI 271133
TAFTWF
TAF
KTWF 271133Z 2712/2812 18011KT P6SM BKN070
     FM271800 29010KT P6SM VCSH BKN060
      TEMPO 2722/2802 -SHRA OVC050
     FM280200 21011KT P6SM VCSH BKN060=



000
FTUS45 KBOI 271133
TAFBKE
TAF
KBKE 271133Z 2712/2812 31008KT P6SM VCSH SCT035 OVC050
     FM271800 31013G22KT P6SM FEW040 BKN100
     FM280600 31011KT P6SM VCSH OVC035
      TEMPO 2808/2812 -SHRA OVC025=



000
FTUS45 KBOI 271133
TAFMYL
TAF
KMYL 271133Z 2712/2812 VRB06KT P6SM VCSH OVC040
     FM271300 VRB06KT P6SM -SHRA OVC025
     FM271800 34007KT P6SM -SHRA OVC035
     FM280000 35009KT 4SM SHRA BR OVC009
     FM280600 35010KT P6SM SCT009 SCT035 SCT050=



    US Dept of Commerce
    National Oceanic and Atmospheric Administration
    National Weather Service
    1325 East West Highway
    Silver Spring, MD 20910
    Page Author: NWS Internet Services Team
Disclaimer
Information Quality
Credits
Glossary
Privacy Policy
Freedom of Information Act (FOIA)
About Us
Career Opportunities